sensor_id;sensor_type;location;lat;lon;timestamp;pressure;altitude;pressure_sealevel;temperature;humidity
63901;BME280;50538;53.482;10.294;2022-09-17T00:09:15;99922.13;;;17.76;67.65
63901;BME280;50538;53.482;10.294;2022-09-17T00:30:33;99929.13;;;17.77;65.19
63901;BME280;50538;53.482;10.294;2022-09-17T00:40:39;99929.84;;;17.73;65.37
63901;BME280;50538;53.482;10.294;2022-09-17T00:51:15;99937.88;;;17.73;66.92
63901;BME280;50538;53.482;10.294;2022-09-17T01:01:18;99939.28;;;17.75;66.90
63901;BME280;50538;53.482;10.294;2022-09-17T01:44:22;99961.06;;;17.44;65.83
63901;BME280;50538;53.482;10.294;2022-09-17T01:54:55;99954.22;;;17.30;66.32
63901;BME280;50538;53.482;10.294;2022-09-17T02:05:21;99961.31;;;17.24;66.24
63901;BME280;50538;53.482;10.294;2022-09-17T02:15:30;99974.16;;;17.22;66.79
63901;BME280;50538;53.482;10.294;2022-09-17T02:25:59;99976.47;;;17.18;66.26
63901;BME280;50538;53.482;10.294;2022-09-17T02:36:23;99965.59;;;16.83;66.49
63901;BME280;50538;53.482;10.294;2022-09-17T02:57:46;99975.72;;;16.81;67.27
63901;BME280;50538;53.482;10.294;2022-09-17T03:08:26;99966.19;;;16.85;66.95
63901;BME280;50538;53.482;10.294;2022-09-17T03:18:51;99961.22;;;16.71;67.02
63901;BME280;50538;53.482;10.294;2022-09-17T03:50:13;99982.72;;;16.64;67.28
63901;BME280;50538;53.482;10.294;2022-09-17T04:00:44;99984.97;;;16.67;67.47
63901;BME280;50538;53.482;10.294;2022-09-17T04:32:49;99998.19;;;16.44;67.61
63901;BME280;50538;53.482;10.294;2022-09-17T04:43:23;100015.00;;;16.33;67.40
63901;BME280;50538;53.482;10.294;2022-09-17T04:53:39;100019.75;;;16.31;67.61
63901;BME280;50538;53.482;10.294;2022-09-17T05:57:04;100044.00;;;16.61;66.89
63901;BME280;50538;53.482;10.294;2022-09-17T06:07:22;100054.72;;;16.61;67.52
63901;BME280;50538;53.482;10.294;2022-09-17T06:17:23;100066.16;;;16.49;66.51
63901;BME280;50538;53.482;10.294;2022-09-17T06:27:34;100080.16;;;16.51;66.31
63901;BME280;50538;53.482;10.294;2022-09-17T06:37:48;100068.78;;;16.56;66.20
63901;BME280;50538;53.482;10.294;2022-09-17T06:47:56;100084.88;;;16.56;65.72
63901;BME280;50538;53.482;10.294;2022-09-17T06:58:00;100088.16;;;16.58;64.89
63901;BME280;50538;53.482;10.294;2022-09-17T07:08:03;100089.91;;;16.46;64.99
63901;BME280;50538;53.482;10.294;2022-09-17T07:18:13;100086.63;;;16.87;64.19
63901;BME280;50538;53.482;10.294;2022-09-17T07:28:17;100081.31;;;17.17;61.93
63901;BME280;50538;53.482;10.294;2022-09-17T07:38:20;100086.16;;;17.75;59.67
63901;BME280;50538;53.482;10.294;2022-09-17T07:48:38;100100.81;;;17.91;55.68
63901;BME280;50538;53.482;10.294;2022-09-17T07:58:42;100097.03;;;18.33;55.55
63901;BME280;50538;53.482;10.294;2022-09-17T08:08:43;100086.66;;;18.37;57.55
63901;BME280;50538;53.482;10.294;2022-09-17T08:18:52;100073.81;;;18.62;55.09
63901;BME280;50538;53.482;10.294;2022-09-17T08:29:05;100081.50;;;19.05;54.81
63901;BME280;50538;53.482;10.294;2022-09-17T08:39:06;100070.25;;;19.08;54.41
63901;BME280;50538;53.482;10.294;2022-09-17T09:00:03;100075.81;;;19.18;53.16
63901;BME280;50538;53.482;10.294;2022-09-17T09:10:45;100069.97;;;19.33;53.51
63901;BME280;50538;53.482;10.294;2022-09-17T09:21:01;100052.81;;;19.11;51.24
63901;BME280;50538;53.482;10.294;2022-09-17T09:42:22;100079.75;;;18.88;53.95
63901;BME280;50538;53.482;10.294;2022-09-17T10:04:00;100080.06;;;18.21;54.19
63901;BME280;50538;53.482;10.294;2022-09-17T10:14:47;100076.34;;;18.92;50.03
63901;BME280;50538;53.482;10.294;2022-09-17T10:25:02;100075.19;;;18.88;48.90
63901;BME280;50538;53.482;10.294;2022-09-17T10:45:29;100057.75;;;19.02;49.20
63901;BME280;50538;53.482;10.294;2022-09-17T11:26:55;100064.19;;;18.90;50.50
63901;BME280;50538;53.482;10.294;2022-09-17T11:47:31;100039.34;;;19.11;51.98
63901;BME280;50538;53.482;10.294;2022-09-17T11:57:36;100030.53;;;18.87;51.73
63901;BME280;50538;53.482;10.294;2022-09-17T12:07:52;100023.81;;;19.30;50.82
63901;BME280;50538;53.482;10.294;2022-09-17T12:28:34;100011.44;;;19.29;52.01
63901;BME280;50538;53.482;10.294;2022-09-17T12:48:43;100002.19;;;19.36;54.32
63901;BME280;50538;53.482;10.294;2022-09-17T12:59:08;99996.13;;;19.91;53.51
63901;BME280;50538;53.482;10.294;2022-09-17T13:19:36;99983.19;;;20.43;50.88
63901;BME280;50538;53.482;10.294;2022-09-17T13:39:47;99964.53;;;20.59;51.96
63901;BME280;50538;53.482;10.294;2022-09-17T13:49:54;99970.56;;;20.27;52.01
63901;BME280;50538;53.482;10.294;2022-09-17T13:59:58;99966.97;;;20.05;53.55
63901;BME280;50538;53.482;10.294;2022-09-17T14:20:19;99967.94;;;20.15;54.42
63901;BME280;50538;53.482;10.294;2022-09-17T14:30:28;99979.22;;;20.29;54.72
63901;BME280;50538;53.482;10.294;2022-09-17T14:40:31;100007.56;;;19.25;52.55
63901;BME280;50538;53.482;10.294;2022-09-17T14:50:33;99983.38;;;18.84;54.64
63901;BME280;50538;53.482;10.294;2022-09-17T15:00:35;99990.59;;;18.56;55.70
63901;BME280;50538;53.482;10.294;2022-09-17T15:10:58;100000.72;;;18.65;57.36
63901;BME280;50538;53.482;10.294;2022-09-17T15:21:01;100017.09;;;18.29;59.33
63901;BME280;50538;53.482;10.294;2022-09-17T15:31:05;100017.69;;;17.96;60.79
63901;BME280;50538;53.482;10.294;2022-09-17T15:41:22;100011.59;;;17.89;62.00
63901;BME280;50538;53.482;10.294;2022-09-17T15:51:28;100019.88;;;18.10;62.50
63901;BME280;50538;53.482;10.294;2022-09-17T16:11:32;100041.28;;;18.17;62.91
63901;BME280;50538;53.482;10.294;2022-09-17T16:21:33;100051.44;;;18.15;63.09
63901;BME280;50538;53.482;10.294;2022-09-17T16:31:33;100060.88;;;18.06;63.96
63901;BME280;50538;53.482;10.294;2022-09-17T16:41:34;100054.00;;;17.98;63.49
63901;BME280;50538;53.482;10.294;2022-09-17T16:51:34;100062.75;;;17.94;63.74
63901;BME280;50538;53.482;10.294;2022-09-17T17:01:34;100065.44;;;18.05;63.21
63901;BME280;50538;53.482;10.294;2022-09-17T17:11:36;100086.09;;;17.93;63.06
63901;BME280;50538;53.482;10.294;2022-09-17T17:21:36;100094.84;;;17.89;62.49
63901;BME280;50538;53.482;10.294;2022-09-17T17:31:37;100103.78;;;17.71;63.22
63901;BME280;50538;53.482;10.294;2022-09-17T17:41:37;100107.22;;;17.60;62.89
63901;BME280;50538;53.482;10.294;2022-09-17T17:51:39;100121.25;;;17.62;62.22
63901;BME280;50538;53.482;10.294;2022-09-17T18:01:45;100118.63;;;17.55;60.82
63901;BME280;50538;53.482;10.294;2022-09-17T18:11:45;100145.06;;;17.40;59.83
63901;BME280;50538;53.482;10.294;2022-09-17T18:21:45;100143.94;;;17.29;60.68
63901;BME280;50538;53.482;10.294;2022-09-17T18:31:46;100147.81;;;17.33;62.09
63901;BME280;50538;53.482;10.294;2022-09-17T18:41:46;100165.88;;;17.44;63.04
63901;BME280;50538;53.482;10.294;2022-09-17T18:51:47;100169.59;;;17.43;64.28
63901;BME280;50538;53.482;10.294;2022-09-17T19:01:50;100178.47;;;17.44;64.50
63901;BME280;50538;53.482;10.294;2022-09-17T19:11:58;100188.03;;;17.40;64.76
63901;BME280;50538;53.482;10.294;2022-09-17T19:22:09;100206.03;;;17.33;65.06
63901;BME280;50538;53.482;10.294;2022-09-17T19:32:15;100207.94;;;17.26;65.26
63901;BME280;50538;53.482;10.294;2022-09-17T19:42:15;100218.59;;;17.14;65.71
63901;BME280;50538;53.482;10.294;2022-09-17T19:52:16;100217.81;;;17.07;66.50
63901;BME280;50538;53.482;10.294;2022-09-17T20:02:18;100224.00;;;17.07;66.30
63901;BME280;50538;53.482;10.294;2022-09-17T20:12:18;100228.94;;;17.10;66.00
63901;BME280;50538;53.482;10.294;2022-09-17T20:22:34;100232.72;;;17.03;66.30
63901;BME280;50538;53.482;10.294;2022-09-17T20:32:42;100233.56;;;16.78;66.88
63901;BME280;50538;53.482;10.294;2022-09-17T20:42:43;100241.88;;;16.70;66.82
63901;BME280;50538;53.482;10.294;2022-09-17T20:52:53;100255.38;;;16.57;66.40
63901;BME280;50538;53.482;10.294;2022-09-17T21:34:21;100280.91;;;16.21;66.31
63901;BME280;50538;53.482;10.294;2022-09-17T22:05:13;100294.13;;;16.16;64.39
63901;BME280;50538;53.482;10.294;2022-09-17T22:15:18;100295.78;;;16.11;64.72
63901;BME280;50538;53.482;10.294;2022-09-17T22:25:28;100296.59;;;16.11;64.84
63901;BME280;50538;53.482;10.294;2022-09-17T22:35:31;100294.13;;;16.10;64.84
63901;BME280;50538;53.482;10.294;2022-09-17T22:45:32;100296.84;;;16.03;64.33
63901;BME280;50538;53.482;10.294;2022-09-17T22:55:32;100297.06;;;15.95;64.66
63901;BME280;50538;53.482;10.294;2022-09-17T23:05:34;100290.72;;;15.89;64.62
63901;BME280;50538;53.482;10.294;2022-09-17T23:15:36;100290.75;;;15.76;64.44
63901;BME280;50538;53.482;10.294;2022-09-17T23:25:36;100291.59;;;15.70;63.99
63901;BME280;50538;53.482;10.294;2022-09-17T23:35:37;100294.91;;;15.66;64.08
63901;BME280;50538;53.482;10.294;2022-09-17T23:45:37;100291.16;;;15.73;63.64
63901;BME280;50538;53.482;10.294;2022-09-17T23:55:45;100286.00;;;15.78;63.78
